Time;durP1;ratioP1;P1;durP2;ratioP2;P2;SDS_P1;SDS_P2;PMS_P1;PMS_P2;Temp;Humidity;BMP_temperature;BMP_pressure;BME280_temperature;BME280_humidity;BME280_pressure;Samples;Min_cycle;Max_cycle;Signal;HPM_P1;HPM_P2
2021/11/10 00:01:58;;;;;;;4.75;3.00;;;17.90;60.10;;;;;;5054858;28;20170;-61
2021/11/10 00:04:23;;;;;;;3.95;2.90;;;17.80;59.90;;;;;;5055538;28;20179;-60
2021/11/10 00:06:49;;;;;;;2.90;2.60;;;17.80;59.90;;;;;;5055145;28;20576;-60
2021/11/10 00:09:15;;;;;;;3.88;2.80;;;17.80;60.00;;;;;;5054980;28;20179;-60
2021/11/10 00:11:43;;;;;;;3.58;2.70;;;17.80;60.00;;;;;;5055251;28;20205;-60
2021/11/10 00:14:09;;;;;;;4.60;2.53;;;17.80;59.90;;;;;;5055497;28;20732;-61
2021/11/10 00:16:35;;;;;;;3.03;2.60;;;17.80;60.00;;;;;;5054390;28;20326;-61
2021/11/10 00:19:00;;;;;;;4.20;2.97;;;17.80;60.00;;;;;;5055339;28;20274;-61
2021/11/10 00:21:26;;;;;;;3.42;2.80;;;17.80;60.00;;;;;;5055032;28;20221;-61
2021/11/10 00:23:52;;;;;;;4.43;3.10;;;17.70;60.00;;;;;;5054144;28;20285;-61
2021/11/10 00:26:18;;;;;;;3.03;2.67;;;17.70;60.00;;;;;;5055098;28;20624;-61
2021/11/10 00:28:44;;;;;;;3.28;2.67;;;17.70;60.00;;;;;;5054506;28;20183;-61
2021/11/10 00:31:09;;;;;;;3.38;3.00;;;17.70;60.00;;;;;;5054046;28;20263;-60
2021/11/10 00:33:35;;;;;;;3.65;3.03;;;17.70;60.00;;;;;;5054708;28;20294;-62
2021/11/10 00:36:01;;;;;;;4.15;2.88;;;17.60;59.90;;;;;;5054916;28;20176;-60
2021/11/10 00:38:26;;;;;;;3.25;2.95;;;17.70;60.10;;;;;;5054358;28;20183;-61
2021/11/10 00:40:52;;;;;;;3.33;3.03;;;17.70;60.10;;;;;;5054537;28;20171;-61
2021/11/10 00:43:17;;;;;;;3.17;2.85;;;17.70;60.00;;;;;;5054542;28;20648;-61
2021/11/10 00:45:43;;;;;;;3.53;3.08;;;17.60;60.00;;;;;;5053314;28;20353;-61
2021/11/10 00:48:10;;;;;;;3.35;3.05;;;17.60;59.90;;;;;;5054481;28;20211;-60
2021/11/10 00:50:36;;;;;;;3.10;2.80;;;17.60;60.00;;;;;;5054427;28;20179;-61
2021/11/10 00:53:03;;;;;;;2.97;2.60;;;17.60;59.90;;;;;;5053714;28;20252;-60
2021/11/10 00:55:29;;;;;;;3.80;2.95;;;17.60;60.00;;;;;;5054450;28;20549;-61
2021/11/10 00:57:55;;;;;;;3.58;2.50;;;17.60;60.00;;;;;;5054377;28;20244;-61
2021/11/10 01:00:22;;;;;;;4.85;2.92;;;17.60;60.00;;;;;;5053546;28;20626;-61
2021/11/10 01:02:47;;;;;;;4.07;3.30;;;17.60;60.00;;;;;;5054196;28;20214;-61
2021/11/10 01:05:13;;;;;;;3.28;2.97;;;17.60;60.00;;;;;;5053654;28;20174;-60
2021/11/10 01:07:38;;;;;;;3.53;2.88;;;17.50;59.90;;;;;;5054188;28;20264;-60
2021/11/10 01:10:05;;;;;;;3.50;3.17;;;17.50;59.90;;;;;;5053788;28;20238;-60
2021/11/10 01:12:30;;;;;;;3.63;2.85;;;17.50;59.90;;;;;;5052999;28;20950;-60
2021/11/10 01:14:56;;;;;;;2.90;2.53;;;17.50;59.90;;;;;;5053697;28;20237;-61
2021/11/10 01:17:21;;;;;;;2.90;2.60;;;17.50;59.90;;;;;;5053889;28;20262;-59
2021/11/10 01:19:47;;;;;;;2.90;2.63;;;17.50;60.00;;;;;;5052728;28;20189;-60
2021/11/10 01:22:13;;;;;;;3.10;2.65;;;17.50;59.90;;;;;;5053948;28;20178;-60
2021/11/10 01:24:38;;;;;;;3.40;2.90;;;17.50;60.00;;;;;;5053753;28;20271;-60
2021/11/10 01:27:04;;;;;;;2.80;2.60;;;17.50;59.90;;;;;;5053106;28;20171;-61
2021/11/10 01:29:29;;;;;;;3.28;2.90;;;17.50;60.00;;;;;;5053337;28;20584;-60
2021/11/10 01:31:55;;;;;;;4.18;2.97;;;17.50;59.90;;;;;;5053849;28;20703;-61
2021/11/10 01:34:20;;;;;;;3.63;3.10;;;17.40;59.90;;;;;;5052781;28;20573;-60
2021/11/10 01:36:46;;;;;;;2.70;2.47;;;17.40;59.90;;;;;;5053230;28;20175;-61
2021/11/10 01:39:12;;;;;;;3.40;2.75;;;17.40;59.90;;;;;;5053389;28;20203;-60
2021/11/10 01:41:43;;;;;;;3.05;2.75;;;17.40;59.90;;;;;;5052470;28;20179;-60
2021/11/10 01:44:20;;;;;;;3.78;2.67;;;17.40;59.90;;;;;;5053511;28;20175;-59
2021/11/10 01:46:46;;;;;;;3.10;2.85;;;17.40;59.90;;;;;;5052986;28;20238;-59
2021/11/10 01:49:11;;;;;;;3.35;2.60;;;17.40;59.90;;;;;;5052708;28;20206;-60
2021/11/10 01:51:49;;;;;;;3.28;2.72;;;17.40;59.90;;;;;;5053053;28;20258;-59
2021/11/10 01:54:15;;;;;;;4.38;2.70;;;17.40;59.90;;;;;;5053186;28;20311;-60
2021/11/10 01:56:40;;;;;;;3.00;2.75;;;17.40;59.90;;;;;;5051984;28;20187;-61
2021/11/10 01:59:06;;;;;;;4.10;2.85;;;17.40;59.90;;;;;;5053348;28;20175;-61
2021/11/10 02:01:32;;;;;;;3.67;2.60;;;17.30;59.90;;;;;;5052102;28;20175;-61
2021/11/10 02:03:57;;;;;;;2.90;2.60;;;17.30;59.80;;;;;;5053034;28;20179;-60
2021/11/10 02:06:23;;;;;;;3.20;2.80;;;17.30;59.90;;;;;;5053023;28;20182;-61
2021/11/10 02:08:49;;;;;;;3.47;2.90;;;17.30;60.00;;;;;;5052007;28;20205;-58
2021/11/10 02:11:14;;;;;;;3.13;2.83;;;17.30;59.90;;;;;;5052913;28;20225;-61
2021/11/10 02:13:40;;;;;;;3.22;2.92;;;17.30;59.90;;;;;;5052670;28;20277;-60
2021/11/10 02:16:06;;;;;;;3.00;2.60;;;17.30;59.90;;;;;;5052303;28;20262;-60
2021/11/10 02:18:31;;;;;;;3.13;2.85;;;17.30;59.90;;;;;;5052459;28;20218;-61
2021/11/10 02:20:57;;;;;;;3.35;3.05;;;17.30;59.90;;;;;;5052678;28;20640;-60
2021/11/10 02:23:22;;;;;;;3.92;2.90;;;17.20;59.80;;;;;;5051147;28;20229;-61
2021/11/10 02:25:55;;;;;;;2.58;2.38;;;17.30;60.00;;;;;;5052114;28;20249;-60
2021/11/10 02:28:21;;;;;;;3.45;2.53;;;17.20;59.80;;;;;;5052810;28;20179;-59
2021/11/10 02:30:46;;;;;;;2.83;2.63;;;17.20;59.90;;;;;;5051658;28;20252;-61
2021/11/10 02:33:13;;;;;;;2.85;2.63;;;17.20;59.90;;;;;;5052282;28;20565;-61
2021/11/10 02:35:38;;;;;;;3.22;2.65;;;17.20;59.80;;;;;;5050960;28;20250;-59
2021/11/10 02:38:05;;;;;;;2.80;2.60;;;17.20;59.90;;;;;;5051669;28;20600;-60
2021/11/10 02:40:31;;;;;;;3.20;2.58;;;17.20;59.90;;;;;;5052301;28;20176;-60
2021/11/10 02:42:57;;;;;;;3.20;2.35;;;17.20;59.90;;;;;;5052459;28;20175;-61
2021/11/10 02:45:22;;;;;;;3.25;2.78;;;17.20;59.90;;;;;;5051579;28;20249;-60
2021/11/10 02:47:48;;;;;;;2.75;2.50;;;17.20;59.90;;;;;;5051858;28;20545;-61
2021/11/10 02:50:14;;;;;;;3.00;2.58;;;17.20;59.90;;;;;;5052152;28;20255;-61
2021/11/10 02:52:39;;;;;;;2.72;2.40;;;17.20;59.90;;;;;;5050870;28;20202;-61
2021/11/10 02:55:05;;;;;;;3.28;2.97;;;17.10;59.90;;;;;;5052207;28;20703;-62
2021/11/10 02:57:30;;;;;;;4.15;2.47;;;17.10;59.90;;;;;;5051940;28;20584;-61
2021/11/10 02:59:56;;;;;;;3.00;2.55;;;17.10;60.80;;;;;;5051273;28;20175;-62
2021/11/10 03:02:26;;;;;;;2.80;2.50;;;17.10;59.90;;;;;;5052042;28;20214;-60
2021/11/10 03:04:51;;;;;;;2.78;2.58;;;17.10;59.90;;;;;;5050873;28;20634;-59
2021/11/10 03:07:17;;;;;;;2.90;2.60;;;17.10;59.90;;;;;;5051812;28;20226;-59
2021/11/10 03:09:42;;;;;;;3.22;2.50;;;17.10;60.00;;;;;;5051511;28;20225;-60
2021/11/10 03:12:08;;;;;;;2.90;2.60;;;17.10;60.00;;;;;;5050984;28;20211;-60
2021/11/10 03:14:35;;;;;;;3.08;2.78;;;17.10;59.90;;;;;;5051593;28;20241;-60
2021/11/10 03:17:03;;;;;;;2.40;2.20;;;17.00;59.90;;;;;;5051915;28;20199;-60
2021/11/10 03:19:28;;;;;;;3.58;2.83;;;17.10;59.90;;;;;;5050902;28;20254;-59
2021/11/10 03:21:54;;;;;;;2.67;2.47;;;17.10;59.90;;;;;;5051636;28;20596;-59
2021/11/10 03:24:22;;;;;;;3.45;2.58;;;17.00;59.90;;;;;;5051530;28;20635;-61
2021/11/10 03:26:48;;;;;;;3.17;2.63;;;17.00;59.90;;;;;;5050755;28;20216;-61
2021/11/10 03:29:13;;;;;;;2.55;2.35;;;17.00;59.90;;;;;;5051684;28;20270;-61
2021/11/10 03:31:39;;;;;;;2.60;2.40;;;17.00;59.90;;;;;;5051206;28;20244;-60
2021/11/10 03:34:06;;;;;;;3.88;2.50;;;17.00;59.90;;;;;;5050574;28;20731;-61
2021/11/10 03:36:31;;;;;;;2.63;2.42;;;17.00;59.90;;;;;;5051165;28;20236;-61
2021/11/10 03:38:57;;;;;;;2.90;2.60;;;17.00;59.90;;;;;;5051277;28;20179;-60
2021/11/10 03:41:22;;;;;;;4.00;2.60;;;17.00;59.90;;;;;;5050931;28;20175;-61
2021/11/10 03:43:51;;;;;;;2.85;2.50;;;17.00;59.90;;;;;;5051299;28;20209;-60
2021/11/10 03:46:17;;;;;;;3.08;2.58;;;16.90;59.90;;;;;;5051331;28;20318;-60
2021/11/10 03:48:42;;;;;;;2.95;2.67;;;16.90;59.90;;;;;;5050389;28;20183;-60
2021/11/10 03:51:08;;;;;;;2.70;1.95;;;17.00;59.90;;;;;;5051207;28;20600;-60
2021/11/10 03:53:33;;;;;;;3.17;2.53;;;16.90;59.90;;;;;;5051093;28;20293;-60
2021/11/10 03:55:59;;;;;;;3.05;2.70;;;16.90;59.90;;;;;;5050749;28;20182;-60
2021/11/10 03:58:24;;;;;;;2.50;2.30;;;16.90;59.90;;;;;;5051256;28;20219;-61
2021/11/10 04:00:50;;;;;;;3.63;2.95;;;16.90;59.90;;;;;;5050884;28;20521;-60
2021/11/10 04:03:15;;;;;;;2.70;2.40;;;16.90;59.90;;;;;;5050512;28;20201;-60
2021/11/10 04:05:42;;;;;;;2.72;2.50;;;16.90;59.90;;;;;;5050680;28;20255;-60
2021/11/10 04:08:11;;;;;;;2.90;2.60;;;16.90;59.90;;;;;;5050735;28;20183;-60
2021/11/10 04:10:37;;;;;;;3.97;2.85;;;16.90;59.90;;;;;;5050884;28;20218;-60
2021/11/10 04:13:03;;;;;;;2.60;2.40;;;16.90;59.90;;;;;;5050863;28;20211;-59
2021/11/10 04:15:28;;;;;;;2.95;2.63;;;16.90;59.90;;;;;;5050194;28;20179;-60
2021/11/10 04:17:54;;;;;;;3.30;3.00;;;16.80;59.80;;;;;;5051170;28;20532;-59
2021/11/10 04:20:19;;;;;;;4.53;2.50;;;16.80;59.80;;;;;;5050964;28;20217;-59
2021/11/10 04:22:45;;;;;;;2.75;2.40;;;16.80;59.90;;;;;;5050268;28;20172;-60
2021/11/10 04:25:11;;;;;;;3.25;2.72;;;16.90;59.90;;;;;;5051229;28;20665;-60
2021/11/10 04:27:36;;;;;;;3.08;2.83;;;16.90;59.90;;;;;;5050916;28;20167;-61
2021/11/10 04:30:05;;;;;;;3.40;2.60;;;16.80;59.90;;;;;;5050340;28;20167;-60
2021/11/10 04:32:31;;;;;;;2.85;2.60;;;16.80;59.80;;;;;;5049486;28;20703;-60
2021/11/10 04:34:56;;;;;;;3.05;2.47;;;16.80;59.90;;;;;;5050859;28;20210;-61
2021/11/10 04:37:22;;;;;;;2.55;2.35;;;16.80;59.90;;;;;;5050559;28;20168;-60
2021/11/10 04:39:47;;;;;;;3.50;2.63;;;16.80;60.20;;;;;;5050980;28;20205;-60
2021/11/10 04:42:14;;;;;;;2.40;2.20;;;16.80;59.90;;;;;;5051254;28;20179;-60
2021/11/10 04:44:39;;;;;;;2.42;2.22;;;16.80;59.90;;;;;;5049923;28;20171;-60
2021/11/10 04:47:05;;;;;;;2.55;2.25;;;16.80;59.90;;;;;;5054394;28;20227;-59
2021/11/10 04:49:30;;;;;;;3.00;2.70;;;16.80;59.90;;;;;;5054143;28;20190;-60
2021/11/10 04:51:57;;;;;;;2.83;2.63;;;16.70;59.80;;;;;;5053894;28;20198;-60
2021/11/10 04:54:23;;;;;;;2.97;2.75;;;16.80;59.90;;;;;;5054403;28;20623;-60
2021/11/10 04:56:49;;;;;;;4.95;2.60;;;16.70;59.80;;;;;;5054095;28;20198;-60
2021/11/10 04:59:14;;;;;;;2.95;2.58;;;16.70;59.80;;;;;;5053611;28;20294;-60
2021/11/10 05:01:44;;;;;;;2.53;2.33;;;16.70;59.90;;;;;;5054060;28;20171;-60
2021/11/10 05:04:09;;;;;;;3.33;2.58;;;16.70;59.90;;;;;;5054327;28;20186;-61
2021/11/10 05:06:35;;;;;;;2.92;2.50;;;16.70;59.90;;;;;;5053118;28;20167;-60
2021/11/10 05:09:00;;;;;;;2.88;2.58;;;16.70;59.90;;;;;;5052992;28;20187;-60
2021/11/10 05:11:26;;;;;;;2.60;2.38;;;16.70;59.90;;;;;;5053540;28;20232;-60
2021/11/10 05:13:51;;;;;;;3.35;2.38;;;16.70;59.90;;;;;;5053642;28;20211;-60
2021/11/10 05:16:17;;;;;;;3.13;2.65;;;16.60;59.80;;;;;;5054031;28;20304;-61
2021/11/10 05:18:43;;;;;;;2.80;2.40;;;16.70;59.90;;;;;;5052841;28;20179;-61
2021/11/10 05:21:08;;;;;;;3.22;2.92;;;16.60;59.80;;;;;;5054182;28;20179;-61
2021/11/10 05:23:34;;;;;;;3.40;2.92;;;16.60;59.80;;;;;;5053606;28;20186;-60
2021/11/10 05:25:59;;;;;;;2.67;2.30;;;16.60;59.80;;;;;;5053097;28;20194;-61
2021/11/10 05:28:25;;;;;;;2.80;2.60;;;16.60;59.90;;;;;;5053865;28;20183;-61
2021/11/10 05:30:51;;;;;;;2.63;2.42;;;16.60;59.90;;;;;;5053588;28;20175;-61
2021/11/10 05:33:16;;;;;;;3.05;2.70;;;16.60;60.20;;;;;;5052787;28;20235;-60
2021/11/10 05:35:42;;;;;;;2.63;2.42;;;16.60;59.80;;;;;;5053630;28;20171;-59
2021/11/10 05:38:07;;;;;;;2.70;2.50;;;16.60;59.80;;;;;;5053638;28;20175;-59
2021/11/10 05:40:33;;;;;;;2.83;2.63;;;16.60;59.90;;;;;;5052647;28;20220;-59
2021/11/10 05:42:59;;;;;;;3.50;2.42;;;16.60;59.90;;;;;;5053481;28;20253;-59
2021/11/10 05:45:24;;;;;;;2.63;2.28;;;16.60;59.80;;;;;;5053267;28;20670;-59
2021/11/10 05:47:50;;;;;;;2.55;2.25;;;16.60;60.20;;;;;;5052431;28;20522;-59
2021/11/10 05:50:15;;;;;;;2.92;2.72;;;16.60;59.90;;;;;;5053617;28;20229;-59
2021/11/10 05:52:43;;;;;;;3.00;2.70;;;16.50;59.80;;;;;;5053193;28;20171;-59
2021/11/10 05:55:08;;;;;;;2.85;2.58;;;16.50;59.80;;;;;;5052633;28;20298;-60
2021/11/10 05:57:37;;;;;;;2.53;2.33;;;16.50;59.90;;;;;;5052904;28;20313;-61
2021/11/10 06:00:04;;;;;;;3.08;2.63;;;16.50;59.80;;;;;;5053421;28;20179;-61
2021/11/10 06:02:30;;;;;;;3.08;2.78;;;16.50;59.80;;;;;;5052174;28;20187;-60
2021/11/10 06:04:55;;;;;;;2.75;2.55;;;16.50;59.80;;;;;;5051983;28;20595;-61
2021/11/10 06:07:21;;;;;;;2.78;2.50;;;16.50;59.80;;;;;;5053151;28;20190;-60
2021/11/10 06:09:46;;;;;;;2.60;2.40;;;16.50;59.90;;;;;;5052247;28;20182;-59
2021/11/10 06:12:12;;;;;;;3.15;2.63;;;16.50;59.90;;;;;;5053245;28;20209;-60
2021/11/10 06:14:38;;;;;;;2.53;2.33;;;16.50;59.90;;;;;;5052108;28;20211;-60
2021/11/10 06:17:04;;;;;;;2.72;2.53;;;16.50;59.80;;;;;;5052975;28;20575;-60
2021/11/10 06:19:30;;;;;;;2.80;2.53;;;16.50;59.90;;;;;;5052475;28;20642;-59
2021/11/10 06:21:55;;;;;;;2.72;2.53;;;16.50;59.90;;;;;;5052542;28;20189;-60
2021/11/10 06:24:21;;;;;;;2.85;2.63;;;16.40;59.80;;;;;;5052899;28;20186;-61
2021/11/10 06:26:48;;;;;;;3.08;2.75;;;16.50;59.90;;;;;;5052525;28;20175;-60
2021/11/10 06:29:14;;;;;;;3.50;3.17;;;16.40;59.80;;;;;;5052118;28;20264;-61
2021/11/10 06:31:39;;;;;;;2.88;2.67;;;16.40;59.80;;;;;;5052237;28;20203;-60
2021/11/10 06:34:05;;;;;;;2.75;2.55;;;16.40;59.80;;;;;;5052836;28;20741;-60
2021/11/10 06:36:30;;;;;;;3.70;2.88;;;16.40;59.80;;;;;;5051767;28;20190;-60
2021/11/10 06:38:56;;;;;;;3.53;2.65;;;16.40;59.80;;;;;;5052814;28;20178;-60
2021/11/10 06:41:22;;;;;;;3.38;3.08;;;16.40;59.80;;;;;;5052702;28;20528;-60
2021/11/10 06:43:47;;;;;;;4.32;3.00;;;16.40;59.80;;;;;;5051423;28;20185;-60
2021/11/10 06:46:13;;;;;;;3.30;3.00;;;16.40;59.80;;;;;;5052048;28;20597;-60
2021/11/10 06:48:39;;;;;;;2.67;2.47;;;16.40;59.80;;;;;;5052425;28;20233;-60
2021/11/10 06:51:04;;;;;;;3.63;3.10;;;16.40;59.80;;;;;;5051571;28;20649;-60
2021/11/10 06:53:30;;;;;;;3.13;2.90;;;16.40;59.80;;;;;;5052060;28;20206;-60
2021/11/10 06:55:55;;;;;;;3.13;2.65;;;16.40;59.80;;;;;;5052154;28;20183;-61
2021/11/10 06:58:21;;;;;;;3.28;2.97;;;16.40;59.80;;;;;;5051426;28;20186;-61
2021/11/10 07:00:46;;;;;;;3.00;2.70;;;16.30;59.80;;;;;;5051844;28;20167;-61
2021/11/10 07:03:13;;;;;;;3.25;2.95;;;16.40;59.80;;;;;;5052047;28;20178;-61
2021/11/10 07:05:39;;;;;;;3.78;2.65;;;16.30;59.80;;;;;;5051168;28;20554;-60
2021/11/10 07:08:05;;;;;;;3.45;3.00;;;16.30;59.80;;;;;;5051713;28;20638;-59
2021/11/10 07:10:30;;;;;;;3.20;3.00;;;16.30;59.80;;;;;;5051723;28;20179;-60
2021/11/10 07:12:56;;;;;;;3.45;3.13;;;16.30;59.80;;;;;;5051112;28;20171;-61
2021/11/10 07:15:24;;;;;;;3.45;2.92;;;16.30;59.80;;;;;;5051880;28;20278;-60
2021/11/10 07:17:51;;;;;;;3.05;2.85;;;16.30;59.80;;;;;;5051483;28;20645;-60
2021/11/10 07:20:16;;;;;;;3.10;2.90;;;16.30;59.80;;;;;;5051246;28;20181;-60
2021/11/10 07:22:42;;;;;;;3.42;3.13;;;16.30;59.80;;;;;;5051445;28;20171;-60
2021/11/10 07:25:08;;;;;;;3.28;3.03;;;16.30;59.80;;;;;;5051183;28;20171;-60
2021/11/10 07:27:34;;;;;;;3.08;2.60;;;16.30;59.80;;;;;;5051465;28;20241;-60
2021/11/10 07:29:59;;;;;;;3.10;2.90;;;16.30;59.80;;;;;;5051695;28;20241;-60
2021/11/10 07:32:25;;;;;;;3.78;3.42;;;16.30;59.80;;;;;;5051192;28;20186;-60
2021/11/10 07:34:50;;;;;;;3.45;3.15;;;16.30;59.80;;;;;;5051523;28;20301;-59
2021/11/10 07:37:16;;;;;;;3.42;3.13;;;16.30;59.70;;;;;;5051797;28;20582;-60
2021/11/10 07:39:44;;;;;;;3.30;2.95;;;16.40;59.80;;;;;;5050690;28;20190;-60
2021/11/10 07:42:09;;;;;;;3.20;2.90;;;16.40;59.60;;;;;;5051587;28;20167;-60
2021/11/10 07:44:36;;;;;;;3.30;3.00;;;16.50;60.00;;;;;;5051211;28;20538;-60
2021/11/10 07:47:17;;;;;;;3.45;3.15;;;16.60;59.70;;;;;;5050650;28;20569;-60
2021/11/10 07:49:44;;;;;;;3.13;2.83;;;16.80;59.50;;;;;;5051463;28;20179;-60
2021/11/10 07:52:09;;;;;;;3.42;3.13;;;17.00;59.40;;;;;;5051538;28;20668;-60
2021/11/10 07:54:35;;;;;;;3.17;2.97;;;17.30;58.90;;;;;;5050581;28;20219;-61
2021/11/10 07:57:00;;;;;;;3.10;2.80;;;17.60;58.50;;;;;;5051325;28;20233;-61
2021/11/10 07:59:26;;;;;;;2.95;2.70;;;17.80;58.10;;;;;;5051354;28;20675;-63
2021/11/10 08:01:51;;;;;;;4.50;2.65;;;18.00;57.70;;;;;;5050278;28;20625;-62
2021/11/10 08:04:17;;;;;;;2.90;2.70;;;18.20;57.30;;;;;;5051560;28;20282;-62
2021/11/10 08:06:42;;;;;;;2.97;2.42;;;18.40;57.00;;;;;;5051204;28;20567;-62
2021/11/10 08:09:08;;;;;;;3.17;2.83;;;18.60;57.00;;;;;;5050688;28;20206;-60
2021/11/10 08:11:33;;;;;;;3.80;2.90;;;18.70;56.90;;;;;;5050848;28;20630;-60
2021/11/10 08:13:59;;;;;;;3.00;2.72;;;18.70;56.90;;;;;;5051447;28;20215;-60
2021/11/10 08:16:25;;;;;;;8.65;2.85;;;18.80;56.90;;;;;;5050482;28;20179;-61
2021/11/10 08:18:51;;;;;;;3.13;2.55;;;18.80;56.80;;;;;;5051072;28;20179;-61
2021/11/10 08:21:17;;;;;;;3.00;2.80;;;18.80;56.80;;;;;;5052884;28;20178;-60
2021/11/10 08:23:43;;;;;;;3.28;2.80;;;18.90;56.90;;;;;;5054868;28;20248;-61
2021/11/10 08:26:08;;;;;;;3.67;2.92;;;18.90;56.90;;;;;;5054860;28;20210;-60
2021/11/10 08:28:34;;;;;;;3.05;2.70;;;18.90;56.90;;;;;;5054101;28;20182;-62
2021/11/10 08:31:00;;;;;;;4.63;3.33;;;18.90;57.00;;;;;;5055029;28;20167;-61
2021/11/10 08:33:26;;;;;;;5.82;2.70;;;18.90;57.20;;;;;;5054708;28;20211;-61
2021/11/10 08:35:52;;;;;;;3.10;2.80;;;18.80;57.20;;;;;;5053996;28;20270;-63
2021/11/10 08:38:17;;;;;;;4.80;2.75;;;18.70;57.40;;;;;;5054704;28;20269;-63
2021/11/10 08:40:43;;;;;;;5.07;3.42;;;18.70;57.50;;;;;;5054397;28;20735;-62
2021/11/10 08:43:11;;;;;;;5.53;2.90;;;18.60;57.50;;;;;;5054137;28;20179;-62
2021/11/10 08:45:38;;;;;;;5.53;2.80;;;18.60;57.50;;;;;;5053964;28;20685;-62
2021/11/10 08:48:07;;;;;;;4.60;2.80;;;18.60;57.60;;;;;;5054725;28;20274;-62
2021/11/10 08:50:36;;;;;;;4.75;3.15;;;18.60;57.50;;;;;;5053457;28;20579;-62
2021/11/10 08:53:02;;;;;;;3.25;2.75;;;18.60;57.50;;;;;;5054424;28;20224;-61
2021/11/10 08:55:27;;;;;;;3.50;3.17;;;18.60;57.60;;;;;;5054378;28;20183;-62
2021/11/10 08:57:53;;;;;;;4.00;2.58;;;18.50;57.70;;;;;;5053444;28;20277;-62
2021/11/10 09:00:21;;;;;;;3.25;2.72;;;18.50;57.90;;;;;;5054415;28;20193;-62
2021/11/10 09:02:46;;;;;;;4.40;2.72;;;18.50;58.10;;;;;;5053856;28;20537;-62
2021/11/10 09:05:13;;;;;;;4.75;3.03;;;18.50;58.10;;;;;;5053637;28;20174;-61
2021/11/10 09:07:38;;;;;;;3.95;2.58;;;18.40;58.20;;;;;;5054087;28;20172;-61
2021/11/10 09:10:08;;;;;;;4.03;2.63;;;18.40;58.20;;;;;;5054165;28;20179;-61
2021/11/10 09:12:34;;;;;;;2.53;2.30;;;18.40;58.30;;;;;;5052767;28;20666;-62
2021/11/10 09:14:59;;;;;;;3.45;2.50;;;18.30;58.40;;;;;;5054344;28;20780;-61
2021/11/10 09:17:25;;;;;;;3.88;3.08;;;18.30;58.50;;;;;;5054027;28;20292;-62
2021/11/10 09:19:51;;;;;;;2.63;2.42;;;18.30;58.60;;;;;;5053099;28;20186;-62
2021/11/10 09:22:17;;;;;;;3.55;2.92;;;18.20;58.60;;;;;;5053740;28;20252;-61
2021/11/10 09:24:45;;;;;;;4.55;3.03;;;18.20;58.80;;;;;;5053142;28;20178;-61
2021/11/10 09:27:11;;;;;;;4.22;3.03;;;18.20;58.90;;;;;;5054113;28;20175;-61
2021/11/10 09:29:37;;;;;;;4.93;2.50;;;18.20;58.90;;;;;;5053696;28;20179;-61
2021/11/10 09:32:06;;;;;;;3.63;2.70;;;18.20;59.00;;;;;;5052726;28;20175;-62
2021/11/10 09:34:33;;;;;;;2.92;2.72;;;18.20;59.10;;;;;;5051722;28;20707;-62
2021/11/10 09:36:58;;;;;;;2.75;2.55;;;18.20;59.10;;;;;;5053535;28;20179;-62
2021/11/10 09:39:24;;;;;;;3.15;2.72;;;18.10;59.10;;;;;;5053195;28;20217;-62
2021/11/10 09:41:51;;;;;;;3.30;2.90;;;18.20;59.20;;;;;;5053523;28;20225;-62
2021/11/10 09:44:17;;;;;;;2.78;2.50;;;18.10;59.20;;;;;;5053660;28;20180;-62
2021/11/10 09:46:42;;;;;;;3.90;2.70;;;18.10;59.30;;;;;;5052267;28;20233;-62
2021/11/10 09:49:10;;;;;;;3.35;3.05;;;18.00;59.30;;;;;;5053514;28;20183;-61
2021/11/10 09:51:36;;;;;;;2.60;2.40;;;18.00;59.30;;;;;;5052931;28;20252;-62
2021/11/10 09:54:03;;;;;;;3.00;2.75;;;18.00;59.40;;;;;;5052471;28;20227;-62
2021/11/10 09:56:29;;;;;;;3.55;2.92;;;18.00;59.50;;;;;;5053089;28;20183;-62
2021/11/10 09:58:55;;;;;;;3.28;2.55;;;17.90;59.60;;;;;;5053351;28;20175;-65
2021/11/10 10:01:21;;;;;;;3.03;2.50;;;17.90;59.60;;;;;;5052589;28;20244;-61
2021/11/10 10:03:47;;;;;;;6.43;3.47;;;17.80;59.70;;;;;;5052857;28;20214;-66
2021/11/10 10:06:16;;;;;;;7.00;3.40;;;17.80;59.80;;;;;;5051694;28;20199;-60
2021/11/10 10:08:43;;;;;;;4.35;2.88;;;17.80;59.80;;;;;;5052162;28;20175;-61
2021/11/10 10:11:09;;;;;;;3.35;3.05;;;17.80;59.80;;;;;;5053264;28;20176;-60
2021/11/10 10:13:34;;;;;;;4.50;3.17;;;17.80;59.90;;;;;;5052376;28;20202;-60
2021/11/10 10:16:00;;;;;;;12.70;2.78;;;17.80;59.80;;;;;;5052152;28;20171;-61
2021/11/10 10:18:27;;;;;;;4.70;3.38;;;17.70;60.60;;;;;;5052915;28;20183;-61
2021/11/10 10:21:00;;;;;;;6.95;3.08;;;17.80;59.90;;;;;;5051533;28;20238;-60
2021/11/10 10:23:29;;;;;;;3.47;2.80;;;17.70;59.90;;;;;;5053021;28;20271;-61
2021/11/10 10:25:59;;;;;;;4.25;2.85;;;17.80;60.00;;;;;;5056487;28;20643;-60
2021/11/10 10:28:27;;;;;;;4.95;3.28;;;17.80;60.00;;;;;;5058911;28;20172;-60
2021/11/10 10:31:00;;;;;;;4.70;2.60;;;17.80;59.90;;;;;;5063443;28;20307;-61
2021/11/10 10:33:28;;;;;;;2.80;2.60;;;17.70;59.90;;;;;;5052313;28;20616;-61
2021/11/10 10:35:54;;;;;;;5.18;2.85;;;17.80;60.00;;;;;;5051697;28;20232;-62
2021/11/10 10:38:25;;;;;;;3.00;2.80;;;17.70;59.90;;;;;;5052372;28;20179;-62
2021/11/10 10:40:52;;;;;;;5.82;3.13;;;17.80;60.00;;;;;;5052139;28;20175;-66
2021/11/10 10:43:18;;;;;;;4.07;2.97;;;17.80;60.20;;;;;;5050709;28;20203;-61
2021/11/10 10:45:47;;;;;;;4.45;3.30;;;17.70;60.10;;;;;;5051782;28;20685;-61
2021/11/10 10:48:15;;;;;;;4.40;3.33;;;17.80;60.10;;;;;;5052738;28;20175;-63
2021/11/10 10:50:49;;;;;;;8.80;3.55;;;17.80;60.10;;;;;;5051353;28;20695;-61
2021/11/10 10:53:17;;;;;;;3.42;2.50;;;17.70;61.00;;;;;;5052095;28;20183;-60
2021/11/10 10:55:47;;;;;;;3.85;2.97;;;17.80;60.10;;;;;;5052010;28;20183;-61
2021/11/10 10:58:38;;;;;;;4.57;2.90;;;17.80;60.10;;;;;;5051460;28;20179;-61
2021/11/10 11:01:26;;;;;;;4.82;3.45;;;17.80;60.00;;;;;;5052127;28;20680;-64
2021/11/10 11:04:04;;;;;;;5.40;3.13;;;17.80;60.10;;;;;;5051173;28;20231;-64
2021/11/10 11:06:45;;;;;;;5.32;3.08;;;17.80;60.00;;;;;;5051689;28;20229;-64
2021/11/10 11:09:23;;;;;;;4.13;2.88;;;17.80;60.10;;;;;;5054085;28;20194;-63
2021/11/10 11:12:04;;;;;;;7.82;3.38;;;17.80;60.20;;;;;;5059647;28;20166;-62
2021/11/10 11:14:49;;;;;;;5.20;3.00;;;17.90;60.30;;;;;;5058168;28;20202;-63
2021/11/10 11:17:29;;;;;;;6.28;2.65;;;17.90;60.20;;;;;;5052120;28;20293;-64
2021/11/10 11:20:09;;;;;;;5.03;3.00;;;17.80;60.30;;;;;;5072092;28;20178;-63
2021/11/10 11:22:45;;;;;;;5.43;3.05;;;17.90;60.40;;;;;;5071588;28;20692;-65
2021/11/10 11:25:16;;;;;;;3.47;3.17;;;17.80;60.20;;;;;;5069980;28;20241;-64
2021/11/10 11:28:12;;;;;;;3.45;2.72;;;17.90;60.30;;;;;;5055032;28;20255;-64
2021/11/10 11:30:41;;;;;;;2.72;2.35;;;17.90;60.30;;;;;;5051391;28;20543;-65
2021/11/10 11:33:12;;;;;;;4.72;2.88;;;17.80;60.30;;;;;;5050796;28;20178;-65
2021/11/10 11:35:42;;;;;;;3.30;2.67;;;17.80;60.20;;;;;;5051433;28;20232;-65
2021/11/10 11:38:10;;;;;;;9.43;3.42;;;17.90;60.20;;;;;;5051338;28;20634;-65
2021/11/10 11:40:36;;;;;;;3.28;2.67;;;17.90;60.10;;;;;;5051221;28;20638;-66
2021/11/10 11:43:03;;;;;;;4.80;3.35;;;17.90;60.00;;;;;;5051705;28;20240;-65
2021/11/10 11:45:30;;;;;;;4.07;2.78;;;17.90;59.90;;;;;;5050224;28;20195;-65
2021/11/10 11:48:00;;;;;;;3.75;2.80;;;17.90;59.90;;;;;;5051471;28;20597;-64
2021/11/10 11:50:25;;;;;;;4.93;2.78;;;18.00;60.00;;;;;;5051454;28;20262;-65
2021/11/10 11:52:51;;;;;;;5.28;2.90;;;18.00;59.90;;;;;;5050608;28;20210;-65
2021/11/10 11:55:21;;;;;;;3.42;2.75;;;18.00;59.90;;;;;;5054244;28;20219;-66
2021/11/10 11:57:47;;;;;;;3.20;2.70;;;18.00;59.80;;;;;;5054379;28;20171;-66
2021/11/10 12:00:13;;;;;;;3.60;2.78;;;18.00;59.80;;;;;;5053485;28;20183;-65
2021/11/10 12:02:48;;;;;;;4.75;3.10;;;18.00;59.80;;;;;;5055197;28;20221;-62
2021/11/10 12:05:24;;;;;;;3.88;2.85;;;18.00;59.80;;;;;;5055743;28;20178;-61
2021/11/10 12:07:57;;;;;;;5.97;3.13;;;18.00;59.80;;;;;;5054681;28;20167;-60
2021/11/10 12:10:22;;;;;;;5.97;2.78;;;18.00;59.80;;;;;;5055227;28;20612;-62
2021/11/10 12:13:08;;;;;;;7.53;3.00;;;18.00;59.90;;;;;;5054793;28;20199;-61
2021/11/10 12:16:01;;;;;;;7.30;3.08;;;18.00;59.80;;;;;;5054321;28;20187;-61
2021/11/10 12:18:29;;;;;;;8.68;2.70;;;18.00;59.80;;;;;;5067960;28;20623;-61
2021/11/10 12:20:59;;;;;;;3.00;2.45;;;18.10;59.90;;;;;;5074327;28;20316;-61
2021/11/10 12:23:25;;;;;;;9.50;3.20;;;18.00;60.00;;;;;;5075228;28;20232;-61
2021/11/10 12:26:03;;;;;;;4.28;2.60;;;18.00;60.10;;;;;;5074678;28;20633;-61
2021/11/10 12:28:51;;;;;;;5.25;2.78;;;18.00;60.10;;;;;;5073834;28;20606;-62
2021/11/10 12:31:33;;;;;;;6.93;2.83;;;18.00;60.20;;;;;;5075127;28;20174;-61
2021/11/10 12:34:00;;;;;;;4.93;2.70;;;18.00;60.30;;;;;;5074654;28;20676;-60
2021/11/10 12:36:48;;;;;;;3.63;2.58;;;17.90;60.20;;;;;;5073954;28;20513;-61
2021/11/10 12:39:14;;;;;;;5.38;2.92;;;17.90;60.40;;;;;;5074704;28;20488;-67
2021/11/10 12:41:49;;;;;;;6.30;2.80;;;17.90;60.60;;;;;;5073749;28;20203;-63
2021/11/10 12:44:43;;;;;;;5.55;3.22;;;17.80;60.60;;;;;;5074391;28;20632;-63
2021/11/10 12:47:10;;;;;;;4.75;3.13;;;17.80;60.60;;;;;;5074098;28;20235;-63
2021/11/10 12:49:38;;;;;;;5.88;2.78;;;17.80;60.80;;;;;;5072684;28;20174;-64